createdAt,value
2019-05-30T00:00:17.976Z,74
2019-05-30T00:01:04.488Z,73
2019-05-30T00:01:39.276Z,73
2019-05-30T00:02:15.254Z,73
2019-05-30T00:02:51.247Z,73
2019-05-30T00:03:27.224Z,73
2019-05-30T00:04:05.198Z,73
2019-05-30T00:04:39.240Z,73
2019-05-30T00:05:15.227Z,73
2019-05-30T00:05:51.202Z,73
2019-05-30T00:06:27.289Z,73
2019-05-30T00:07:04.567Z,73
2019-05-30T00:07:39.209Z,73
2019-05-30T00:08:15.196Z,73
2019-05-30T00:08:51.302Z,73
2019-05-30T00:09:27.252Z,73
2019-05-30T00:10:04.979Z,73
2019-05-30T00:10:39.203Z,73
2019-05-30T00:11:15.280Z,73
2019-05-30T00:11:51.247Z,73
2019-05-30T00:12:27.238Z,73
2019-05-30T00:13:04.749Z,73
2019-05-30T00:13:39.272Z,73
2019-05-30T00:14:15.244Z,73
2019-05-30T00:14:51.211Z,73
2019-05-30T00:15:27.169Z,74
2019-05-30T00:16:15.202Z,74
2019-05-30T00:16:51.275Z,74
2019-05-30T00:17:27.245Z,74
2019-05-30T00:18:03.477Z,74
2019-05-30T00:18:39.200Z,74
2019-05-30T00:19:15.264Z,74
2019-05-30T00:19:51.230Z,74
2019-05-30T00:20:27.211Z,74
2019-05-30T00:21:03.466Z,74
2019-05-30T00:21:39.256Z,74
2019-05-30T00:22:15.221Z,74
2019-05-30T00:22:51.201Z,75
2019-05-30T00:23:27.173Z,75
2019-05-30T00:24:04.680Z,75
2019-05-30T00:24:51.449Z,75
2019-05-30T00:25:27.237Z,75
2019-05-30T00:26:03.928Z,75
2019-05-30T00:26:39.178Z,75
2019-05-30T00:27:15.254Z,75
2019-05-30T00:27:51.214Z,75
2019-05-30T00:28:27.191Z,75
2019-05-30T00:29:04.503Z,76
2019-05-30T00:29:39.263Z,76
2019-05-30T00:30:25.334Z,76
2019-05-30T00:31:39.178Z,76
2019-05-30T00:32:15.293Z,76
2019-05-30T00:32:51.251Z,76
2019-05-30T00:33:27.214Z,76
2019-05-30T00:34:05.841Z,76
2019-05-30T00:34:39.275Z,76
2019-05-30T00:35:15.233Z,76
2019-05-30T00:35:51.207Z,77
2019-05-30T00:36:27.175Z,77
2019-05-30T00:37:05.707Z,77
2019-05-30T00:37:39.254Z,77
2019-05-30T00:38:15.205Z,77
2019-05-30T00:38:51.292Z,77
2019-05-30T00:39:27.303Z,77
2019-05-30T00:40:04.645Z,77
2019-05-30T00:40:39.197Z,77
2019-05-30T00:41:15.279Z,77
2019-05-30T00:41:51.317Z,77
2019-05-30T00:42:27.228Z,78
2019-05-30T00:43:04.493Z,78
2019-05-30T00:43:39.164Z,78
2019-05-30T00:44:15.314Z,78
2019-05-30T00:44:51.239Z,78
2019-05-30T00:45:27.191Z,78
2019-05-30T00:46:04.444Z,78
2019-05-30T00:46:39.302Z,78
2019-05-30T00:47:15.237Z,78
2019-05-30T00:47:51.221Z,78
2019-05-30T00:48:27.166Z,78
2019-05-30T00:49:04.727Z,78
2019-05-30T00:49:39.230Z,78
2019-05-30T00:50:15.202Z,78
2019-05-30T00:50:51.158Z,79
2019-05-30T00:51:27.278Z,79
2019-05-30T00:52:04.693Z,79
2019-05-30T00:52:39.191Z,79
2019-05-30T00:53:15.163Z,79
2019-05-30T00:53:51.251Z,79
2019-05-30T00:54:27.237Z,79
2019-05-30T00:55:04.662Z,79
2019-05-30T00:55:39.287Z,79
2019-05-30T00:56:15.279Z,79
2019-05-30T00:56:51.243Z,79
2019-05-30T00:57:27.215Z,79
2019-05-30T00:58:03.360Z,80
2019-05-30T00:58:39.273Z,80
2019-05-30T00:59:15.224Z,80
2019-05-30T00:59:51.210Z,80
2019-05-30T01:00:44.556Z,81
2019-05-30T01:01:39.211Z,81
2019-05-30T01:02:15.189Z,81
2019-05-30T01:02:51.371Z,81
2019-05-30T01:03:27.235Z,81
2019-05-30T01:04:03.431Z,81
2019-05-30T01:04:45.923Z,80
2019-05-30T01:05:15.275Z,80
2019-05-30T01:05:51.257Z,80
2019-05-30T01:06:27.213Z,80
2019-05-30T01:07:05.478Z,80
2019-05-30T01:07:39.289Z,80
2019-05-30T01:08:15.232Z,80
2019-05-30T01:08:51.273Z,80
2019-05-30T01:09:27.170Z,79
2019-05-30T01:10:04.037Z,79
2019-05-30T01:10:39.230Z,79
2019-05-30T01:11:15.217Z,79
2019-05-30T01:11:51.174Z,79
2019-05-30T01:12:27.263Z,79
2019-05-30T01:13:03.672Z,79
2019-05-30T01:13:39.211Z,79
2019-05-30T01:14:15.163Z,79
2019-05-30T01:14:51.277Z,79
2019-05-30T01:15:27.250Z,78
2019-05-30T01:16:05.133Z,78
2019-05-30T01:16:43.212Z,78
2019-05-30T01:17:15.255Z,78
2019-05-30T01:17:51.226Z,79
2019-05-30T01:18:27.199Z,78
2019-05-30T01:19:03.786Z,78
2019-05-30T01:19:39.241Z,78
2019-05-30T01:20:15.249Z,79
2019-05-30T01:20:51.196Z,79
2019-05-30T01:21:27.163Z,78
2019-05-30T01:22:05.387Z,78
2019-05-30T01:22:39.210Z,79
2019-05-30T01:23:15.215Z,79
2019-05-30T01:23:51.297Z,79
2019-05-30T01:24:27.249Z,79
2019-05-30T01:25:07.612Z,79
2019-05-30T01:25:39.270Z,79
2019-05-30T01:26:15.260Z,79
2019-05-30T01:26:51.328Z,79
2019-05-30T01:27:27.224Z,79
2019-05-30T01:28:05.299Z,79
2019-05-30T01:28:39.276Z,79
2019-05-30T01:29:15.239Z,79
2019-05-30T01:29:51.227Z,79
2019-05-30T01:30:27.177Z,79
2019-05-30T01:31:11.731Z,79
2019-05-30T01:31:39.241Z,79
2019-05-30T01:32:15.193Z,80
2019-05-30T01:32:51.185Z,80
2019-05-30T01:33:27.281Z,80
2019-05-30T01:34:04.285Z,81
2019-05-30T01:34:39.203Z,81
2019-05-30T01:35:15.196Z,82
2019-05-30T01:35:51.269Z,82
2019-05-30T01:36:27.226Z,82
2019-05-30T01:37:04.338Z,82
2019-05-30T01:37:39.177Z,82
2019-05-30T01:38:15.265Z,83
2019-05-30T01:38:51.316Z,82
2019-05-30T01:39:27.217Z,82
2019-05-30T01:40:06.452Z,82
2019-05-30T01:40:39.282Z,82
2019-05-30T01:41:18.219Z,82
2019-05-30T01:42:04.386Z,82
2019-05-30T01:42:39.198Z,82
2019-05-30T01:43:15.166Z,81
2019-05-30T01:43:51.250Z,81
2019-05-30T01:44:27.213Z,81
2019-05-30T01:45:04.482Z,81
2019-05-30T01:45:39.203Z,81
2019-05-30T01:46:15.256Z,81
2019-05-30T01:46:51.231Z,81
2019-05-30T01:47:27.195Z,80
2019-05-30T01:48:04.937Z,81
2019-05-30T01:48:39.257Z,81
2019-05-30T01:49:15.216Z,81
2019-05-30T01:49:51.194Z,80
2019-05-30T01:50:27.263Z,80
2019-05-30T01:51:04.477Z,80
2019-05-30T01:51:39.216Z,80
2019-05-30T01:52:15.188Z,80
2019-05-30T01:52:51.616Z,80
2019-05-30T01:53:27.250Z,80
2019-05-30T01:54:04.272Z,80
2019-05-30T01:54:39.192Z,80
2019-05-30T01:55:15.301Z,80
2019-05-30T01:55:51.239Z,80
2019-05-30T01:56:27.210Z,80
2019-05-30T01:57:03.202Z,80
2019-05-30T01:57:39.277Z,80
2019-05-30T01:58:15.231Z,80
2019-05-30T01:58:51.218Z,80
2019-05-30T01:59:27.166Z,80
2019-05-30T02:00:21.788Z,79
2019-05-30T02:01:26.019Z,79
2019-05-30T02:02:27.276Z,79
2019-05-30T02:03:03.449Z,79
2019-05-30T02:03:39.214Z,79
2019-05-30T02:04:15.171Z,79
2019-05-30T02:04:51.252Z,79
2019-05-30T02:05:27.230Z,79
2019-05-30T02:06:05.457Z,79
2019-05-30T02:06:39.179Z,78
2019-05-30T02:07:15.247Z,79
2019-05-30T02:07:51.227Z,78
2019-05-30T02:08:27.201Z,78
2019-05-30T02:09:03.796Z,78
2019-05-30T02:09:39.253Z,78
2019-05-30T02:10:15.212Z,78
2019-05-30T02:10:51.211Z,78
2019-05-30T02:11:27.190Z,78
2019-05-30T02:12:05.460Z,78
2019-05-30T02:12:39.211Z,78
2019-05-30T02:13:15.191Z,78
2019-05-30T02:13:51.160Z,78
2019-05-30T02:14:27.250Z,78
2019-05-30T02:15:04.138Z,78
2019-05-30T02:15:39.205Z,78
2019-05-30T02:16:15.147Z,78
2019-05-30T02:16:51.273Z,78
2019-05-30T02:17:27.223Z,78
2019-05-30T02:18:04.105Z,78
2019-05-30T02:18:39.268Z,78
2019-05-30T02:19:15.256Z,78
2019-05-30T02:19:51.274Z,78
2019-05-30T02:20:27.183Z,78
2019-05-30T02:21:04.287Z,78
2019-05-30T02:21:39.240Z,78
2019-05-30T02:22:15.207Z,78
2019-05-30T02:22:51.174Z,78
2019-05-30T02:23:27.289Z,78
2019-05-30T02:24:04.383Z,78
2019-05-30T02:24:39.216Z,78
2019-05-30T02:25:15.182Z,78
2019-05-30T02:25:51.261Z,78
2019-05-30T02:26:27.243Z,78
2019-05-30T02:27:04.403Z,78
2019-05-30T02:27:39.157Z,78
2019-05-30T02:28:15.262Z,78
2019-05-30T02:28:51.234Z,78
2019-05-30T02:29:27.197Z,78
2019-05-30T02:30:11.635Z,78
2019-05-30T02:31:15.228Z,78
2019-05-30T02:31:51.205Z,78
2019-05-30T02:32:27.171Z,78
2019-05-30T02:33:06.803Z,79
2019-05-30T02:33:39.235Z,78
2019-05-30T02:34:15.206Z,78
2019-05-30T02:34:51.235Z,78
2019-05-30T02:35:27.277Z,79
2019-05-30T02:36:08.377Z,79
2019-05-30T02:36:39.204Z,79
2019-05-30T02:37:15.168Z,79
2019-05-30T02:37:51.299Z,79
2019-05-30T02:38:27.239Z,79
2019-05-30T02:39:05.149Z,79
2019-05-30T02:39:39.154Z,79
2019-05-30T02:40:16.051Z,79
2019-05-30T02:40:51.234Z,79
2019-05-30T02:41:27.198Z,79
2019-05-30T02:42:07.137Z,79
2019-05-30T02:42:39.301Z,79
2019-05-30T02:43:15.214Z,79
2019-05-30T02:43:51.182Z,79
2019-05-30T02:44:27.160Z,79
2019-05-30T02:45:07.821Z,79
2019-05-30T02:45:39.221Z,79
2019-05-30T02:46:15.190Z,79
2019-05-30T02:46:51.271Z,79
2019-05-30T02:47:27.256Z,79
2019-05-30T02:48:07.030Z,79
2019-05-30T02:49:02.142Z,79
2019-05-30T02:49:15.253Z,79
2019-05-30T02:49:51.251Z,79
2019-05-30T02:50:27.219Z,79
2019-05-30T02:51:07.413Z,79
2019-05-30T02:51:39.277Z,79
2019-05-30T02:52:15.248Z,79
2019-05-30T02:52:51.214Z,79
2019-05-30T02:53:27.164Z,79
2019-05-30T02:54:10.932Z,79
2019-05-30T02:54:39.256Z,79
2019-05-30T02:55:15.193Z,79
2019-05-30T02:55:51.185Z,79
2019-05-30T02:56:27.286Z,79
2019-05-30T02:57:07.748Z,79
2019-05-30T02:57:39.204Z,79
2019-05-30T02:58:15.203Z,79
2019-05-30T02:58:51.267Z,79
2019-05-30T02:59:27.247Z,79
2019-05-30T03:00:13.613Z,79
2019-05-30T03:01:15.460Z,79
2019-05-30T03:02:09.815Z,79
2019-05-30T03:03:09.117Z,79
2019-05-30T03:03:39.373Z,79
2019-05-30T03:04:15.224Z,79
2019-05-30T03:04:51.237Z,78
2019-05-30T03:05:27.274Z,78
2019-05-30T03:06:08.712Z,78
2019-05-30T03:06:39.232Z,78
2019-05-30T03:07:15.215Z,78
2019-05-30T03:07:51.163Z,78
2019-05-30T03:08:27.258Z,78
2019-05-30T03:09:08.355Z,78
2019-05-30T03:09:39.188Z,78
2019-05-30T03:10:16.116Z,78
2019-05-30T03:10:51.270Z,78
2019-05-30T03:11:27.238Z,78
2019-05-30T03:12:08.631Z,78
2019-05-30T03:12:39.361Z,78
2019-05-30T03:13:15.266Z,78
2019-05-30T03:13:51.218Z,77
2019-05-30T03:14:27.187Z,77
2019-05-30T03:15:11.808Z,77
2019-05-30T03:16:15.260Z,77
2019-05-30T03:16:51.196Z,77
2019-05-30T03:17:27.295Z,77
2019-05-30T03:18:09.742Z,76
2019-05-30T03:18:39.196Z,76
2019-05-30T03:19:15.192Z,76
2019-05-30T03:19:51.401Z,76
2019-05-30T03:20:27.240Z,76
2019-05-30T03:21:08.057Z,76
2019-05-30T03:21:39.182Z,76
2019-05-30T03:22:15.255Z,76
2019-05-30T03:22:51.251Z,75
2019-05-30T03:23:27.201Z,75
2019-05-30T03:24:09.636Z,75
2019-05-30T03:24:39.282Z,75
2019-05-30T03:25:16.875Z,75
2019-05-30T03:25:51.250Z,75
2019-05-30T03:26:27.169Z,75
2019-05-30T03:27:09.026Z,75
2019-05-30T03:27:39.239Z,75
2019-05-30T03:28:15.220Z,75
2019-05-30T03:28:54.051Z,75
2019-05-30T03:29:27.254Z,75
2019-05-30T03:30:25.135Z,75
2019-05-30T03:31:30.534Z,75
2019-05-30T03:33:23.977Z,75
2019-05-30T03:34:29.515Z,75
2019-05-30T03:35:43.643Z,75
2019-05-30T03:36:28.127Z,75
2019-05-30T03:37:30.792Z,74
2019-05-30T03:38:27.143Z,75
2019-05-30T03:39:16.023Z,75
2019-05-30T03:39:51.231Z,75
2019-05-30T03:40:32.168Z,75
2019-05-30T03:41:08.695Z,75
2019-05-30T03:41:39.261Z,75
2019-05-30T03:42:16.656Z,75
2019-05-30T03:42:51.235Z,75
2019-05-30T03:43:27.208Z,75
2019-05-30T03:44:08.308Z,75
2019-05-30T03:44:39.247Z,75
2019-05-30T03:45:17.234Z,75
2019-05-30T03:45:51.197Z,75
2019-05-30T03:46:27.272Z,75
2019-05-30T03:47:08.347Z,75
2019-05-30T03:47:39.204Z,75
2019-05-30T03:48:16.954Z,75
2019-05-30T03:48:51.267Z,75
2019-05-30T03:49:27.225Z,75
2019-05-30T03:50:09.707Z,75
2019-05-30T03:51:15.757Z,75
2019-05-30T03:51:51.267Z,75
2019-05-30T03:52:27.220Z,75
2019-05-30T03:53:09.067Z,75
2019-05-30T03:54:16.680Z,75
2019-05-30T03:54:51.206Z,75
2019-05-30T03:55:27.180Z,75
2019-05-30T03:56:08.626Z,75
2019-05-30T03:56:39.210Z,75
2019-05-30T03:57:16.387Z,75
2019-05-30T03:57:51.182Z,75
2019-05-30T03:58:27.237Z,75
2019-05-30T03:59:03.264Z,74
2019-05-30T03:59:39.196Z,75
2019-05-30T04:00:18.469Z,75
2019-05-30T04:00:52.139Z,74
2019-05-30T04:01:27.275Z,74
2019-05-30T04:02:03.220Z,74
2019-05-30T04:02:59.441Z,74
2019-05-30T04:03:51.241Z,73
2019-05-30T04:04:27.178Z,73
2019-05-30T04:05:03.271Z,72
2019-05-30T04:05:39.248Z,72
2019-05-30T04:06:17.078Z,72
2019-05-30T04:06:51.235Z,71
2019-05-30T04:07:27.147Z,71
2019-05-30T04:08:03.266Z,71
2019-05-30T04:08:39.214Z,71
2019-05-30T04:09:25.415Z,70
2019-05-30T04:10:27.246Z,69
2019-05-30T04:11:03.205Z,69
2019-05-30T04:11:39.171Z,69
2019-05-30T04:12:17.261Z,69
2019-05-30T04:12:51.241Z,68
2019-05-30T04:13:27.273Z,68
2019-05-30T04:14:03.166Z,68
2019-05-30T04:14:39.262Z,68
2019-05-30T04:15:19.029Z,68
2019-05-30T04:15:51.246Z,68
2019-05-30T04:16:27.188Z,67
2019-05-30T04:17:03.248Z,66
2019-05-30T04:17:39.247Z,66
2019-05-30T04:18:17.142Z,66
2019-05-30T04:18:51.220Z,66
2019-05-30T04:19:27.261Z,66
2019-05-30T04:20:03.264Z,66
2019-05-30T04:20:39.209Z,66
2019-05-30T04:21:21.901Z,66
2019-05-30T04:21:51.254Z,66
2019-05-30T04:22:27.221Z,66
2019-05-30T04:23:03.179Z,65
2019-05-30T04:23:39.171Z,65
2019-05-30T04:24:16.887Z,65
2019-05-30T04:25:03.380Z,65
2019-05-30T04:25:39.244Z,65
2019-05-30T04:26:18.349Z,65
2019-05-30T04:26:51.157Z,65
2019-05-30T04:27:27.256Z,64
2019-05-30T04:28:03.237Z,64
2019-05-30T04:28:39.247Z,64
2019-05-30T04:29:19.140Z,64
2019-05-30T04:29:51.247Z,64
2019-05-30T04:30:27.212Z,64
2019-05-30T04:31:03.196Z,64
2019-05-30T04:31:39.161Z,63
2019-05-30T04:32:18.819Z,64
2019-05-30T04:32:51.222Z,64
2019-05-30T04:33:34.299Z,64
2019-05-30T04:34:03.201Z,64
2019-05-30T04:34:39.236Z,63
2019-05-30T04:35:18.830Z,63
2019-05-30T04:35:51.217Z,63
2019-05-30T04:36:27.146Z,63
2019-05-30T04:37:03.302Z,63
2019-05-30T04:37:39.221Z,62
2019-05-30T04:38:19.239Z,61
2019-05-30T04:38:51.152Z,62
2019-05-30T04:39:27.229Z,62
2019-05-30T04:40:03.245Z,62
2019-05-30T04:40:39.186Z,62
2019-05-30T04:41:21.181Z,62
2019-05-30T04:41:51.221Z,62
2019-05-30T04:42:27.245Z,62
2019-05-30T04:43:03.177Z,62
2019-05-30T04:43:39.131Z,62
2019-05-30T04:44:20.235Z,62
2019-05-30T04:45:03.265Z,62
2019-05-30T04:45:39.204Z,61
2019-05-30T04:46:21.722Z,61
2019-05-30T04:46:51.258Z,61
2019-05-30T04:47:27.238Z,61
2019-05-30T04:48:20.577Z,61
2019-05-30T04:48:51.210Z,60
2019-05-30T04:49:27.201Z,60
2019-05-30T04:50:03.335Z,60
2019-05-30T04:50:39.229Z,60
2019-05-30T04:51:27.213Z,59
2019-05-30T04:52:03.197Z,59
2019-05-30T04:52:39.171Z,60
2019-05-30T04:53:20.363Z,60
2019-05-30T04:53:51.208Z,61
2019-05-30T04:54:27.217Z,62
2019-05-30T04:55:23.084Z,62
2019-05-30T04:55:51.291Z,61
2019-05-30T04:56:27.252Z,62
2019-05-30T04:57:03.221Z,61
2019-05-30T04:57:39.194Z,62
2019-05-30T04:58:21.629Z,62
2019-05-30T04:59:27.310Z,61
2019-05-30T05:00:03.232Z,61
2019-05-30T05:00:39.146Z,61
2019-05-30T05:01:27.162Z,61
2019-05-30T05:02:03.251Z,60
2019-05-30T05:02:39.206Z,61
2019-05-30T05:03:44.874Z,61
2019-05-30T05:04:27.286Z,60
2019-05-30T05:05:03.230Z,61
2019-05-30T05:05:39.177Z,61
2019-05-30T05:06:18.408Z,61
2019-05-30T05:06:51.321Z,61
2019-05-30T05:07:27.194Z,60
2019-05-30T05:08:18.119Z,59
2019-05-30T05:08:51.169Z,60
2019-05-30T05:09:27.118Z,60
2019-05-30T05:10:27.202Z,60
2019-05-30T05:11:03.182Z,60
2019-05-30T05:11:39.238Z,59
2019-05-30T05:12:16.546Z,60
2019-05-30T05:13:03.193Z,60
2019-05-30T05:13:39.150Z,59
2019-05-30T05:14:16.569Z,59
2019-05-30T05:14:51.237Z,59
2019-05-30T05:15:27.174Z,59
2019-05-30T05:16:30.586Z,59
2019-05-30T05:17:16.506Z,58
2019-05-30T05:17:51.209Z,58
2019-05-30T05:18:27.137Z,58
2019-05-30T05:19:03.120Z,57
2019-05-30T05:19:51.222Z,56
2019-05-30T05:20:27.206Z,56
2019-05-30T05:21:03.261Z,55
2019-05-30T05:21:39.138Z,56
2019-05-30T05:22:27.164Z,55
2019-05-30T05:23:03.113Z,55
2019-05-30T05:23:39.209Z,55
2019-05-30T05:24:17.195Z,55
2019-05-30T05:25:03.195Z,54
2019-05-30T05:25:39.147Z,55
2019-05-30T05:26:15.959Z,55
2019-05-30T05:26:51.226Z,55
2019-05-30T05:27:27.206Z,55
2019-05-30T05:28:16.295Z,55
2019-05-30T05:28:51.143Z,55
2019-05-30T05:29:27.114Z,55
2019-05-30T05:30:03.248Z,55
2019-05-30T05:30:39.173Z,55
2019-05-30T05:31:16.691Z,55
2019-05-30T05:31:51.232Z,55
2019-05-30T05:32:27.184Z,55
2019-05-30T05:33:03.165Z,54
2019-05-30T05:33:39.139Z,55
2019-05-30T05:34:16.442Z,55
2019-05-30T05:34:52.775Z,55
2019-05-30T05:35:27.178Z,55
2019-05-30T05:36:03.135Z,55
2019-05-30T05:36:39.258Z,55
2019-05-30T05:37:15.464Z,55
2019-05-30T05:37:51.161Z,55
2019-05-30T05:38:39.194Z,54
2019-05-30T05:39:16.579Z,54
2019-05-30T05:39:51.225Z,54
2019-05-30T05:40:28.234Z,54
2019-05-30T05:41:03.191Z,54
2019-05-30T05:41:39.131Z,54
2019-05-30T05:42:16.528Z,53
2019-05-30T05:42:51.205Z,53
2019-05-30T05:43:27.159Z,53
2019-05-30T05:44:03.121Z,53
2019-05-30T05:44:39.218Z,53
2019-05-30T05:45:16.524Z,53
2019-05-30T05:45:51.292Z,53
2019-05-30T05:46:27.120Z,53
2019-05-30T05:47:03.217Z,53
2019-05-30T05:47:39.165Z,52
2019-05-30T05:48:16.399Z,53
2019-05-30T05:48:51.105Z,53
2019-05-30T05:49:27.206Z,52
2019-05-30T05:50:03.195Z,52
2019-05-30T05:50:39.170Z,51
2019-05-30T05:51:16.232Z,51
2019-05-30T05:51:51.208Z,51
2019-05-30T05:52:27.161Z,52
2019-05-30T05:53:03.144Z,52
2019-05-30T05:53:39.162Z,52
2019-05-30T05:54:15.202Z,51
2019-05-30T05:54:51.170Z,51
2019-05-30T05:55:27.142Z,51
2019-05-30T05:56:03.102Z,50
2019-05-30T05:56:39.218Z,51
2019-05-30T05:57:15.163Z,50
2019-05-30T05:57:51.126Z,50
2019-05-30T05:58:27.137Z,50
2019-05-30T05:59:03.189Z,50
2019-05-30T05:59:39.162Z,50
2019-05-30T06:00:15.129Z,50
2019-05-30T06:00:51.351Z,48
2019-05-30T06:01:27.209Z,48
2019-05-30T06:02:03.170Z,48
2019-05-30T06:02:39.118Z,48
2019-05-30T06:03:20.350Z,49
2019-05-30T06:03:51.185Z,48
2019-05-30T06:04:27.903Z,48
2019-05-30T06:05:03.130Z,48
2019-05-30T06:05:53.963Z,48
2019-05-30T06:06:51.150Z,47
2019-05-30T06:07:27.121Z,47
2019-05-30T06:08:03.108Z,47
2019-05-30T06:08:39.190Z,47
2019-05-30T06:09:16.449Z,47
2019-05-30T06:09:51.121Z,46
2019-05-30T06:10:28.529Z,47
2019-05-30T06:11:03.178Z,48
2019-05-30T06:11:39.155Z,47
2019-05-30T06:12:15.116Z,47
2019-05-30T06:12:51.232Z,46
2019-05-30T06:13:27.178Z,46
2019-05-30T06:14:03.137Z,46
2019-05-30T06:14:39.123Z,46
2019-05-30T06:15:15.101Z,46
2019-05-30T06:15:51.163Z,46
2019-05-30T06:16:28.645Z,46
2019-05-30T06:17:03.129Z,46
2019-05-30T06:17:39.079Z,45
2019-05-30T06:18:15.163Z,46
2019-05-30T06:18:51.124Z,46
2019-05-30T06:19:28.065Z,46
2019-05-30T06:20:39.148Z,44
2019-05-30T06:21:15.160Z,44
2019-05-30T06:21:55.067Z,45
2019-05-30T06:22:28.094Z,45
2019-05-30T06:23:03.150Z,45
2019-05-30T06:23:39.116Z,45
2019-05-30T06:24:15.098Z,45
2019-05-30T06:25:03.321Z,45
2019-05-30T06:25:39.188Z,45
2019-05-30T06:26:15.237Z,45
2019-05-30T06:26:51.115Z,45
2019-05-30T06:27:28.314Z,44
2019-05-30T06:28:03.191Z,44
2019-05-30T06:28:39.143Z,44
2019-05-30T06:29:15.130Z,44
2019-05-30T06:29:51.087Z,44
2019-05-30T06:30:28.564Z,44
2019-05-30T06:31:03.165Z,44
2019-05-30T06:31:39.105Z,44
2019-05-30T06:32:15.108Z,44
2019-05-30T06:32:51.180Z,45
2019-05-30T06:33:39.176Z,44
2019-05-30T06:34:39.717Z,44
2019-05-30T06:35:29.468Z,44
2019-05-30T06:36:03.279Z,44
2019-05-30T06:36:39.152Z,44
2019-05-30T06:37:15.119Z,44
2019-05-30T06:37:51.299Z,44
2019-05-30T06:38:27.964Z,43
2019-05-30T06:39:03.135Z,43
2019-05-30T06:39:39.102Z,43
2019-05-30T06:40:15.082Z,43
2019-05-30T06:40:51.170Z,43
2019-05-30T06:41:28.269Z,43
2019-05-30T06:42:03.104Z,43
2019-05-30T06:42:39.092Z,43
2019-05-30T06:43:15.163Z,44
2019-05-30T06:43:51.169Z,43
2019-05-30T06:44:28.339Z,44
2019-05-30T06:45:03.081Z,44
2019-05-30T06:45:39.156Z,43
2019-05-30T06:46:15.138Z,44
2019-05-30T06:46:51.244Z,43
2019-05-30T06:47:27.070Z,43
2019-05-30T06:48:03.161Z,43
2019-05-30T06:48:39.140Z,43
2019-05-30T06:49:15.098Z,43
2019-05-30T06:49:51.083Z,43
2019-05-30T06:50:27.432Z,43
2019-05-30T06:51:03.128Z,42
2019-05-30T06:51:39.092Z,43
2019-05-30T06:52:15.077Z,43
2019-05-30T06:52:51.410Z,43
2019-05-30T06:53:27.855Z,44
2019-05-30T06:54:03.081Z,44
2019-05-30T06:54:39.103Z,43
2019-05-30T06:55:15.150Z,43
2019-05-30T06:55:51.127Z,43
2019-05-30T06:56:28.036Z,43
2019-05-30T06:57:03.052Z,42
2019-05-30T06:57:39.204Z,42
2019-05-30T06:58:15.136Z,43
2019-05-30T06:58:51.090Z,42
2019-05-30T06:59:28.184Z,41
2019-05-30T07:00:03.146Z,41
2019-05-30T07:00:39.121Z,41
2019-05-30T07:01:15.103Z,41
2019-05-30T07:01:52.793Z,40
2019-05-30T07:02:28.590Z,41
2019-05-30T07:03:03.271Z,40
2019-05-30T07:03:39.218Z,41
2019-05-30T07:04:16.614Z,41
2019-05-30T07:04:54.213Z,41
2019-05-30T07:05:34.103Z,40
2019-05-30T07:06:04.710Z,40
2019-05-30T07:06:40.016Z,41
2019-05-30T07:07:15.630Z,42
2019-05-30T07:07:51.726Z,42
2019-05-30T07:08:27.276Z,41
2019-05-30T07:09:03.056Z,41
2019-05-30T07:09:39.154Z,41
2019-05-30T07:10:15.118Z,41
2019-05-30T07:10:51.081Z,40
2019-05-30T07:11:27.329Z,40
2019-05-30T07:12:03.129Z,40
2019-05-30T07:12:39.107Z,41
2019-05-30T07:13:15.087Z,41
2019-05-30T07:13:51.032Z,42
2019-05-30T07:14:27.812Z,41
2019-05-30T07:15:03.101Z,41
2019-05-30T07:15:39.064Z,42
2019-05-30T07:16:15.116Z,42
2019-05-30T07:16:51.140Z,42
2019-05-30T07:17:27.986Z,42
2019-05-30T07:18:03.091Z,40
2019-05-30T07:18:39.043Z,40
2019-05-30T07:19:15.131Z,39
2019-05-30T07:19:51.078Z,39
2019-05-30T07:20:28.022Z,39
2019-05-30T07:21:03.039Z,39
2019-05-30T07:21:39.115Z,39
2019-05-30T07:22:15.103Z,38
2019-05-30T07:22:51.054Z,39
2019-05-30T07:23:28.291Z,39
2019-05-30T07:24:03.119Z,39
2019-05-30T07:24:39.080Z,39
2019-05-30T07:25:15.038Z,38
2019-05-30T07:25:51.040Z,39
2019-05-30T07:26:28.221Z,39
2019-05-30T07:27:03.081Z,40
2019-05-30T07:27:39.046Z,40
2019-05-30T07:28:15.158Z,40
2019-05-30T07:28:51.094Z,39
2019-05-30T07:29:28.430Z,39
2019-05-30T07:30:03.051Z,39
2019-05-30T07:30:39.127Z,39
2019-05-30T07:31:15.109Z,38
2019-05-30T07:31:51.078Z,38
2019-05-30T07:32:28.186Z,38
2019-05-30T07:33:03.150Z,38
2019-05-30T07:33:39.115Z,39
2019-05-30T07:34:15.071Z,38
2019-05-30T07:35:07.805Z,38
2019-05-30T07:35:28.263Z,38
2019-05-30T07:36:03.101Z,38
2019-05-30T07:36:39.067Z,38
2019-05-30T07:37:15.048Z,38
2019-05-30T07:37:51.122Z,39
2019-05-30T07:38:28.320Z,39
2019-05-30T07:39:03.093Z,39
2019-05-30T07:39:39.041Z,38
2019-05-30T07:40:20.279Z,39
2019-05-30T07:40:51.128Z,39
2019-05-30T07:41:28.610Z,39
2019-05-30T07:42:15.078Z,38
2019-05-30T07:42:51.058Z,39
2019-05-30T07:43:31.589Z,39
2019-05-30T07:44:03.088Z,39
2019-05-30T07:44:39.067Z,39
2019-05-30T07:45:15.039Z,38
2019-05-30T07:45:59.018Z,38
2019-05-30T07:46:27.340Z,38
2019-05-30T07:47:03.047Z,39
2019-05-30T07:47:39.241Z,39
2019-05-30T07:48:15.114Z,39
2019-05-30T07:48:51.108Z,39
2019-05-30T07:49:28.046Z,38
2019-05-30T07:50:03.025Z,38
2019-05-30T07:50:51.063Z,39
2019-05-30T07:51:28.241Z,37
2019-05-30T07:52:03.086Z,37
2019-05-30T07:52:39.646Z,37
2019-05-30T07:53:15.090Z,38
2019-05-30T07:53:51.138Z,36
2019-05-30T07:54:27.414Z,37
2019-05-30T07:55:03.054Z,37
2019-05-30T07:55:39.879Z,37
2019-05-30T07:56:15.108Z,37
2019-05-30T07:56:51.083Z,37
2019-05-30T07:57:28.314Z,37
2019-05-30T07:58:03.034Z,37
2019-05-30T07:58:39.111Z,37
2019-05-30T07:59:28.425Z,36
2019-05-30T08:00:03.074Z,37
2019-05-30T08:00:39.038Z,37
2019-05-30T08:01:15.045Z,37
2019-05-30T08:01:51.121Z,37
2019-05-30T08:02:28.082Z,37
2019-05-30T08:03:03.054Z,37
2019-05-30T08:03:39.442Z,37
2019-05-30T08:04:15.138Z,37
2019-05-30T08:04:51.149Z,36
2019-05-30T08:05:28.343Z,36
2019-05-30T08:06:03.037Z,37
2019-05-30T08:06:39.094Z,37
2019-05-30T08:07:15.061Z,37
2019-05-30T08:07:51.027Z,37
2019-05-30T08:08:29.682Z,38
2019-05-30T08:09:03.095Z,36
2019-05-30T08:09:39.855Z,35
2019-05-30T08:10:15.102Z,36
2019-05-30T08:10:51.000Z,34
2019-05-30T08:11:27.349Z,35
2019-05-30T08:12:03.069Z,35
2019-05-30T08:12:39.040Z,36
2019-05-30T08:13:14.998Z,36
2019-05-30T08:13:51.086Z,36
2019-05-30T08:14:27.523Z,36
2019-05-30T08:15:03.036Z,36
2019-05-30T08:15:44.646Z,36
2019-05-30T08:16:15.084Z,36
2019-05-30T08:16:51.050Z,36
2019-05-30T08:17:27.859Z,36
2019-05-30T08:18:03.037Z,37
2019-05-30T08:18:39.073Z,36
2019-05-30T08:19:15.052Z,36
2019-05-30T08:19:51.116Z,36
2019-05-30T08:20:28.137Z,37
2019-05-30T08:21:03.114Z,37
2019-05-30T08:21:39.044Z,36
2019-05-30T08:22:15.022Z,35
2019-05-30T08:22:50.970Z,33
2019-05-30T08:23:28.293Z,33
2019-05-30T08:24:03.044Z,32
2019-05-30T08:24:39.533Z,31
2019-05-30T08:25:15.030Z,32
2019-05-30T08:25:51.066Z,32
2019-05-30T08:26:28.306Z,32
2019-05-30T08:27:03.022Z,32
2019-05-30T08:27:39.334Z,32
2019-05-30T08:28:15.075Z,32
2019-05-30T08:28:51.027Z,33
2019-05-30T08:29:28.267Z,33
2019-05-30T08:30:03.139Z,33
2019-05-30T08:30:39.312Z,33
2019-05-30T08:31:15.069Z,33
2019-05-30T08:31:51.030Z,32
2019-05-30T08:32:39.538Z,32
2019-05-30T08:33:15.110Z,32
2019-05-30T08:33:51.073Z,31
2019-05-30T08:34:28.641Z,32
2019-05-30T08:35:03.005Z,33
2019-05-30T08:35:50.516Z,34
2019-05-30T08:36:51.049Z,35
2019-05-30T08:37:26.996Z,32
2019-05-30T08:38:15.002Z,31
2019-05-30T08:38:51.104Z,33
2019-05-30T08:39:27.139Z,34
2019-05-30T08:40:03.016Z,34
2019-05-30T08:40:40.084Z,33
2019-05-30T08:41:15.254Z,32
2019-05-30T08:41:51.056Z,34
2019-05-30T08:42:31.116Z,33
2019-05-30T08:43:02.984Z,33
2019-05-30T08:43:40.229Z,34
2019-05-30T08:44:15.067Z,34
2019-05-30T08:44:51.023Z,32
2019-05-30T08:45:27.238Z,31
2019-05-30T08:46:03.072Z,32
2019-05-30T08:46:40.239Z,33
2019-05-30T08:47:15.032Z,33
2019-05-30T08:47:50.989Z,33
2019-05-30T08:48:27.184Z,33
2019-05-30T08:49:15.120Z,33
2019-05-30T08:49:51.051Z,33
2019-05-30T08:50:27.058Z,34
2019-05-30T08:51:02.982Z,34
2019-05-30T08:51:39.128Z,33
2019-05-30T08:52:15.036Z,33
2019-05-30T08:52:51.024Z,34
2019-05-30T08:53:27.341Z,34
2019-05-30T08:54:03.069Z,35
2019-05-30T08:54:39.125Z,34